createdAt,value
2023-01-17T00:00:29.418Z,100
2023-01-17T00:01:31.469Z,100
2023-01-17T00:02:32.939Z,100
2023-01-17T00:03:34.676Z,100
2023-01-17T00:04:36.339Z,100
2023-01-17T00:05:38.057Z,100
2023-01-17T00:06:39.798Z,100
2023-01-17T00:07:41.538Z,100
2023-01-17T00:08:43.295Z,100
2023-01-17T00:09:45.039Z,100
2023-01-17T00:10:46.723Z,100
2023-01-17T00:11:48.458Z,100
2023-01-17T00:12:50.191Z,100
2023-01-17T00:13:51.928Z,100
2023-01-17T00:14:53.676Z,100
2023-01-17T00:15:55.466Z,100
2023-01-17T00:16:57.140Z,100
2023-01-17T00:17:59.042Z,100
2023-01-17T00:19:00.607Z,100
2023-01-17T00:20:02.335Z,100
2023-01-17T00:21:04.076Z,100
2023-01-17T00:22:05.816Z,100
2023-01-17T00:23:07.546Z,100
2023-01-17T00:24:09.271Z,100
2023-01-17T00:25:11.004Z,100
2023-01-17T00:26:12.738Z,100
2023-01-17T00:27:14.465Z,100
2023-01-17T00:28:16.207Z,100
2023-01-17T00:29:17.943Z,100
2023-01-17T00:30:20.705Z,100
2023-01-17T00:31:21.503Z,100
2023-01-17T00:32:23.150Z,100
2023-01-17T00:33:24.879Z,100
2023-01-17T00:34:26.623Z,100
2023-01-17T00:35:28.350Z,100
2023-01-17T00:36:30.096Z,100
2023-01-17T00:37:31.813Z,100
2023-01-17T00:38:33.559Z,100
2023-01-17T00:39:35.319Z,100
2023-01-17T00:40:37.018Z,100
2023-01-17T00:41:38.752Z,100
2023-01-17T00:42:40.504Z,100
2023-01-17T00:43:42.224Z,100
2023-01-17T00:44:43.939Z,100
2023-01-17T00:45:45.682Z,100
2023-01-17T00:46:47.455Z,100
2023-01-17T00:47:49.160Z,100
2023-01-17T00:48:50.886Z,100
2023-01-17T00:49:52.615Z,100
2023-01-17T00:50:54.349Z,100
2023-01-17T00:51:56.078Z,100
2023-01-17T00:52:57.827Z,100
2023-01-17T00:53:59.542Z,100
2023-01-17T00:55:01.294Z,100
2023-01-17T00:56:03.027Z,100
2023-01-17T00:57:04.762Z,100
2023-01-17T00:58:06.490Z,100
2023-01-17T00:59:08.231Z,100
2023-01-17T01:00:09.946Z,100
2023-01-17T01:01:11.885Z,100
2023-01-17T01:02:13.451Z,100
2023-01-17T01:03:15.155Z,100
2023-01-17T01:04:16.872Z,100
2023-01-17T01:05:18.629Z,100
2023-01-17T01:06:20.360Z,100
2023-01-17T01:07:22.094Z,100
2023-01-17T01:08:23.825Z,100
2023-01-17T01:09:25.562Z,100
2023-01-17T01:10:27.292Z,100
2023-01-17T01:11:29.048Z,100
2023-01-17T01:12:30.762Z,100
2023-01-17T01:13:32.497Z,100
2023-01-17T01:14:34.237Z,100
2023-01-17T01:15:35.961Z,100
2023-01-17T01:16:37.834Z,100
2023-01-17T01:17:39.433Z,100
2023-01-17T01:18:41.166Z,100
2023-01-17T01:19:42.914Z,100
2023-01-17T01:20:44.636Z,100
2023-01-17T01:21:46.376Z,100
2023-01-17T01:22:48.104Z,100
2023-01-17T01:23:49.848Z,100
2023-01-17T01:24:51.575Z,100
2023-01-17T01:25:53.308Z,100
2023-01-17T01:26:55.056Z,100
2023-01-17T01:27:56.774Z,100
2023-01-17T01:28:58.507Z,100
2023-01-17T01:30:00.263Z,100
2023-01-17T01:31:01.974Z,100
2023-01-17T01:32:03.722Z,100
2023-01-17T01:33:05.443Z,100
2023-01-17T01:34:07.200Z,100
2023-01-17T01:35:08.905Z,100
2023-01-17T01:36:10.654Z,100
2023-01-17T01:37:12.376Z,100
2023-01-17T01:38:14.115Z,100
2023-01-17T01:39:15.845Z,100
2023-01-17T01:40:17.589Z,100
2023-01-17T01:41:19.312Z,100
2023-01-17T01:42:21.038Z,100
2023-01-17T01:43:22.791Z,100
2023-01-17T01:44:24.510Z,100
2023-01-17T01:45:26.295Z,100
2023-01-17T01:46:27.980Z,100
2023-01-17T01:47:29.713Z,100
2023-01-17T01:48:31.453Z,100
2023-01-17T01:49:33.254Z,100
2023-01-17T01:50:34.935Z,100
2023-01-17T01:51:36.706Z,100
2023-01-17T01:52:38.385Z,100
2023-01-17T01:53:40.108Z,100
2023-01-17T01:54:41.843Z,100
2023-01-17T01:55:43.610Z,100
2023-01-17T01:56:45.334Z,100
2023-01-17T01:57:47.055Z,100
2023-01-17T01:58:48.821Z,100
2023-01-17T01:59:50.541Z,100
2023-01-17T02:00:52.367Z,100
2023-01-17T02:01:54.151Z,100
2023-01-17T02:02:55.736Z,100
2023-01-17T02:03:57.518Z,100
2023-01-17T02:04:59.209Z,100
2023-01-17T02:06:00.952Z,100
2023-01-17T02:07:02.663Z,100
2023-01-17T02:08:04.420Z,100
2023-01-17T02:09:06.141Z,100
2023-01-17T02:10:08.102Z,100
2023-01-17T02:11:09.633Z,100
2023-01-17T02:12:11.328Z,100
2023-01-17T02:13:13.077Z,100
2023-01-17T02:14:14.859Z,100
2023-01-17T02:15:16.536Z,100
2023-01-17T02:16:18.408Z,100
2023-01-17T02:17:20.014Z,100
2023-01-17T02:18:21.747Z,100
2023-01-17T02:19:23.470Z,100
2023-01-17T02:20:25.210Z,100
2023-01-17T02:21:26.965Z,100
2023-01-17T02:22:28.676Z,100
2023-01-17T02:23:30.416Z,100
2023-01-17T02:24:32.140Z,100
2023-01-17T02:25:33.887Z,100
2023-01-17T02:26:35.624Z,100
2023-01-17T02:27:37.356Z,100
2023-01-17T02:28:39.089Z,100
2023-01-17T02:29:40.815Z,100
2023-01-17T02:30:42.569Z,100
2023-01-17T02:31:44.310Z,100
2023-01-17T02:32:46.029Z,100
2023-01-17T02:33:47.766Z,100
2023-01-17T02:34:49.500Z,100
2023-01-17T02:35:51.238Z,100
2023-01-17T02:36:52.986Z,100
2023-01-17T02:37:54.697Z,100
2023-01-17T02:38:56.440Z,100
2023-01-17T02:39:58.180Z,100
2023-01-17T02:40:59.893Z,100
2023-01-17T02:42:01.625Z,100
2023-01-17T02:43:03.363Z,100
2023-01-17T02:44:05.113Z,100
2023-01-17T02:45:06.846Z,100
2023-01-17T02:46:09.882Z,100
2023-01-17T02:47:10.311Z,100
2023-01-17T02:48:12.031Z,100
2023-01-17T02:49:13.773Z,100
2023-01-17T02:50:15.530Z,100
2023-01-17T02:51:17.251Z,100
2023-01-17T02:52:18.974Z,100
2023-01-17T02:53:20.731Z,100
2023-01-17T02:54:22.439Z,100
2023-01-17T02:55:24.183Z,100
2023-01-17T02:56:25.938Z,100
2023-01-17T02:57:27.628Z,100
2023-01-17T02:58:29.418Z,100
2023-01-17T02:59:31.118Z,100
2023-01-17T03:00:32.831Z,100
2023-01-17T03:01:34.737Z,100
2023-01-17T03:02:36.503Z,100
2023-01-17T03:03:38.036Z,100
2023-01-17T03:04:39.762Z,100
2023-01-17T03:05:41.547Z,100
2023-01-17T03:06:43.260Z,100
2023-01-17T03:07:44.971Z,100
2023-01-17T03:08:46.723Z,100
2023-01-17T03:09:48.437Z,100
2023-01-17T03:10:50.182Z,100
2023-01-17T03:11:51.929Z,100
2023-01-17T03:12:53.630Z,100
2023-01-17T03:13:55.394Z,100
2023-01-17T03:14:57.116Z,100
2023-01-17T03:15:58.847Z,100
2023-01-17T03:17:00.583Z,100
2023-01-17T03:18:02.324Z,100
2023-01-17T03:19:04.065Z,100
2023-01-17T03:20:05.778Z,100
2023-01-17T03:21:07.536Z,100
2023-01-17T03:22:09.252Z,100
2023-01-17T03:23:10.981Z,100
2023-01-17T03:24:12.742Z,100
2023-01-17T03:25:14.447Z,100
2023-01-17T03:26:16.186Z,100
2023-01-17T03:27:17.920Z,100
2023-01-17T03:28:19.658Z,100
2023-01-17T03:29:21.413Z,100
2023-01-17T03:30:23.236Z,100
2023-01-17T03:31:24.870Z,100
2023-01-17T03:32:26.650Z,100
2023-01-17T03:33:28.339Z,100
2023-01-17T03:34:30.087Z,100
2023-01-17T03:35:31.788Z,100
2023-01-17T03:36:33.612Z,100
2023-01-17T03:37:35.296Z,100
2023-01-17T03:38:37.006Z,100
2023-01-17T03:39:38.762Z,100
2023-01-17T03:40:40.465Z,100
2023-01-17T03:41:42.221Z,100
2023-01-17T03:42:43.917Z,100
2023-01-17T03:43:45.668Z,100
2023-01-17T03:44:47.409Z,100
2023-01-17T03:45:49.181Z,100
2023-01-17T03:46:50.891Z,100
2023-01-17T03:47:52.624Z,100
2023-01-17T03:48:54.350Z,100
2023-01-17T03:49:56.078Z,100
2023-01-17T03:50:57.796Z,100
2023-01-17T03:51:59.528Z,100
2023-01-17T03:53:01.285Z,100
2023-01-17T03:54:03.008Z,100
2023-01-17T03:55:04.766Z,100
2023-01-17T03:56:06.476Z,100
2023-01-17T03:57:08.203Z,100
2023-01-17T03:58:09.947Z,100
2023-01-17T03:59:13.250Z,100
2023-01-17T04:00:13.403Z,100
2023-01-17T04:01:15.243Z,100
2023-01-17T04:02:16.970Z,100
2023-01-17T04:03:18.636Z,100
2023-01-17T04:04:20.343Z,100
2023-01-17T04:05:22.081Z,100
2023-01-17T04:06:23.831Z,100
2023-01-17T04:07:25.550Z,100
2023-01-17T04:08:27.296Z,100
2023-01-17T04:09:29.023Z,100
2023-01-17T04:10:30.757Z,100
2023-01-17T04:11:32.498Z,100
2023-01-17T04:12:34.220Z,100
2023-01-17T04:13:35.963Z,100
2023-01-17T04:14:37.705Z,100
2023-01-17T04:15:39.428Z,100
2023-01-17T04:16:41.180Z,100
2023-01-17T04:17:42.883Z,100
2023-01-17T04:18:44.654Z,100
2023-01-17T04:19:46.341Z,100
2023-01-17T04:20:48.091Z,100
2023-01-17T04:21:49.828Z,100
2023-01-17T04:22:51.551Z,100
2023-01-17T04:23:53.294Z,100
2023-01-17T04:24:55.021Z,100
2023-01-17T04:25:56.755Z,100
2023-01-17T04:26:58.490Z,100
2023-01-17T04:28:00.211Z,100
2023-01-17T04:29:01.972Z,100
2023-01-17T04:30:03.705Z,100
2023-01-17T04:31:05.479Z,100
2023-01-17T04:32:07.147Z,100
2023-01-17T04:33:08.903Z,100
2023-01-17T04:34:10.631Z,100
2023-01-17T04:35:12.375Z,100
2023-01-17T04:36:14.100Z,100
2023-01-17T04:37:15.826Z,100
2023-01-17T04:38:17.549Z,100
2023-01-17T04:39:19.300Z,100
2023-01-17T04:40:21.021Z,100
2023-01-17T04:41:22.760Z,100
2023-01-17T04:42:24.491Z,100
2023-01-17T04:43:26.233Z,100
2023-01-17T04:44:27.946Z,100
2023-01-17T04:45:29.700Z,100
2023-01-17T04:46:31.444Z,100
2023-01-17T04:47:33.178Z,100
2023-01-17T04:48:34.881Z,100
2023-01-17T04:49:36.632Z,100
2023-01-17T04:50:38.357Z,100
2023-01-17T04:51:40.128Z,100
2023-01-17T04:52:41.835Z,100
2023-01-17T04:53:43.551Z,100
2023-01-17T04:54:45.295Z,100
2023-01-17T04:55:47.029Z,100
2023-01-17T04:56:48.762Z,100
2023-01-17T04:57:50.512Z,100
2023-01-17T04:58:52.227Z,100
2023-01-17T04:59:53.962Z,100
2023-01-17T05:00:55.740Z,100
2023-01-17T05:01:57.539Z,100
2023-01-17T05:02:59.192Z,100
2023-01-17T05:04:00.902Z,100
2023-01-17T05:05:02.629Z,100
2023-01-17T05:06:04.372Z,100
2023-01-17T05:07:06.095Z,100
2023-01-17T05:08:07.823Z,100
2023-01-17T05:09:09.572Z,100
2023-01-17T05:10:11.297Z,100
2023-01-17T05:11:13.023Z,100
2023-01-17T05:12:14.789Z,100
2023-01-17T05:13:16.537Z,100
2023-01-17T05:14:18.230Z,100
2023-01-17T05:15:19.954Z,100
2023-01-17T05:16:21.712Z,100
2023-01-17T05:17:23.437Z,100
2023-01-17T05:18:25.194Z,100
2023-01-17T05:19:26.909Z,100
2023-01-17T05:20:28.639Z,100
2023-01-17T05:21:30.383Z,100
2023-01-17T05:22:32.106Z,100
2023-01-17T05:23:33.889Z,100
2023-01-17T05:24:35.582Z,100
2023-01-17T05:25:37.317Z,100
2023-01-17T05:26:39.034Z,100
2023-01-17T05:27:40.801Z,100
2023-01-17T05:28:42.496Z,100
2023-01-17T05:29:44.247Z,100
2023-01-17T05:30:45.989Z,100
2023-01-17T05:31:47.722Z,100
2023-01-17T05:32:49.466Z,100
2023-01-17T05:33:51.176Z,100
2023-01-17T05:34:52.929Z,100
2023-01-17T05:35:54.668Z,100
2023-01-17T05:36:56.384Z,100
2023-01-17T05:37:58.114Z,100
2023-01-17T05:38:59.856Z,100
2023-01-17T05:40:01.589Z,100
2023-01-17T05:41:03.320Z,100
2023-01-17T05:42:05.048Z,100
2023-01-17T05:43:06.802Z,100
2023-01-17T05:44:08.527Z,100
2023-01-17T05:45:10.251Z,100
2023-01-17T05:46:12.045Z,100
2023-01-17T05:47:13.725Z,100
2023-01-17T05:48:15.467Z,100
2023-01-17T05:49:17.187Z,100
2023-01-17T05:50:18.953Z,100
2023-01-17T05:51:20.670Z,100
2023-01-17T05:52:22.400Z,100
2023-01-17T05:53:24.146Z,100
2023-01-17T05:54:25.865Z,100
2023-01-17T05:55:27.609Z,100
2023-01-17T05:56:29.321Z,100
2023-01-17T05:57:31.056Z,100
2023-01-17T05:58:32.798Z,100
2023-01-17T05:59:37.330Z,100
2023-01-17T06:00:36.261Z,100
2023-01-17T06:01:37.986Z,100
2023-01-17T06:02:39.850Z,100
2023-01-17T06:03:41.463Z,100
2023-01-17T06:04:43.334Z,100
2023-01-17T06:05:44.991Z,100
2023-01-17T06:06:46.675Z,100
2023-01-17T06:07:48.398Z,100
2023-01-17T06:08:51.669Z,100
2023-01-17T06:09:55.027Z,100
2023-01-17T06:10:56.732Z,100
2023-01-17T06:11:58.644Z,100
2023-01-17T06:14:06.741Z,100
2023-01-17T06:15:08.555Z,100
2023-01-17T06:16:10.343Z,100
2023-01-17T06:17:11.999Z,100
2023-01-17T06:18:13.759Z,100
2023-01-17T06:19:15.469Z,100
2023-01-17T06:20:17.199Z,100
2023-01-17T06:21:18.951Z,100
2023-01-17T06:22:25.784Z,100
2023-01-17T06:23:27.528Z,100
2023-01-17T06:24:29.253Z,100
2023-01-17T06:25:30.976Z,100
2023-01-17T06:26:32.732Z,100
2023-01-17T06:27:34.445Z,100
2023-01-17T06:28:36.181Z,100
2023-01-17T06:29:37.943Z,100
2023-01-17T06:30:39.662Z,100
2023-01-17T06:31:41.435Z,100
2023-01-17T06:32:43.144Z,100
2023-01-17T06:33:44.846Z,100
2023-01-17T06:34:46.588Z,100
2023-01-17T06:35:48.315Z,100
2023-01-17T06:36:50.071Z,100
2023-01-17T06:37:51.797Z,100
2023-01-17T06:38:53.521Z,100
2023-01-17T06:39:55.274Z,100
2023-01-17T06:40:56.976Z,100
2023-01-17T06:41:58.731Z,100
2023-01-17T06:43:00.441Z,100
2023-01-17T06:44:02.178Z,100
2023-01-17T06:45:03.921Z,100
2023-01-17T06:46:05.671Z,100
2023-01-17T06:47:07.400Z,100
2023-01-17T06:48:09.176Z,100
2023-01-17T06:49:10.858Z,100
2023-01-17T06:50:12.615Z,100
2023-01-17T06:51:14.307Z,100
2023-01-17T06:52:16.047Z,100
2023-01-17T06:53:17.806Z,100
2023-01-17T06:54:19.525Z,100
2023-01-17T06:55:21.267Z,100
2023-01-17T06:56:23.000Z,100
2023-01-17T06:57:24.737Z,100
2023-01-17T06:58:26.546Z,100
2023-01-17T06:59:28.235Z,100
2023-01-17T07:00:30.036Z,100
2023-01-17T07:01:31.749Z,100
2023-01-17T07:02:33.407Z,100
2023-01-17T07:03:35.157Z,100
2023-01-17T07:04:36.860Z,100
2023-01-17T07:05:38.621Z,100
2023-01-17T07:06:40.322Z,100
2023-01-17T07:07:42.072Z,100
2023-01-17T07:08:43.809Z,100
2023-01-17T07:09:45.561Z,100
2023-01-17T07:10:47.278Z,100
2023-01-17T07:11:49.010Z,100
2023-01-17T07:12:50.752Z,100
2023-01-17T07:13:52.465Z,100
2023-01-17T07:14:54.197Z,100
2023-01-17T07:15:55.967Z,100
2023-01-17T07:16:57.676Z,100
2023-01-17T07:17:59.410Z,100
2023-01-17T07:19:01.139Z,100
2023-01-17T07:20:02.891Z,100
2023-01-17T07:21:04.632Z,100
2023-01-17T07:22:06.337Z,100
2023-01-17T07:23:08.077Z,100
2023-01-17T07:24:09.859Z,100
2023-01-17T07:25:11.542Z,100
2023-01-17T07:26:13.297Z,100
2023-01-17T07:27:15.031Z,100
2023-01-17T07:28:16.747Z,100
2023-01-17T07:29:18.476Z,100
2023-01-17T07:30:20.232Z,100
2023-01-17T07:31:22.093Z,100
2023-01-17T07:32:23.673Z,100
2023-01-17T07:33:25.400Z,100
2023-01-17T07:34:27.138Z,100
2023-01-17T07:35:28.885Z,100
2023-01-17T07:36:30.627Z,100
2023-01-17T07:37:32.359Z,100
2023-01-17T07:38:34.084Z,100
2023-01-17T07:39:35.819Z,100
2023-01-17T07:40:42.044Z,100
2023-01-17T07:41:39.302Z,100
2023-01-17T07:42:41.009Z,100
2023-01-17T07:43:42.815Z,100
2023-01-17T07:44:44.472Z,100
2023-01-17T07:45:46.207Z,100
2023-01-17T07:46:48.036Z,100
2023-01-17T07:47:49.685Z,100
2023-01-17T07:48:51.424Z,100
2023-01-17T07:49:53.155Z,100
2023-01-17T07:50:54.881Z,100
2023-01-17T07:51:56.619Z,100
2023-01-17T07:52:58.358Z,100
2023-01-17T07:54:00.114Z,100
2023-01-17T07:55:01.896Z,100
2023-01-17T07:56:03.568Z,100
2023-01-17T07:57:05.299Z,100
2023-01-17T07:58:07.029Z,100
2023-01-17T07:59:08.760Z,100
2023-01-17T08:00:10.511Z,100
2023-01-17T08:01:12.359Z,100
2023-01-17T08:02:13.986Z,100
2023-01-17T08:03:15.701Z,100
2023-01-17T08:04:17.443Z,100
2023-01-17T08:05:19.218Z,100
2023-01-17T08:06:20.923Z,100
2023-01-17T08:07:22.646Z,100
2023-01-17T08:08:24.378Z,100
2023-01-17T08:09:26.115Z,100
2023-01-17T08:10:27.842Z,100
2023-01-17T08:11:29.466Z,100
2023-01-17T08:12:31.211Z,100
2023-01-17T08:13:32.921Z,100
2023-01-17T08:14:34.665Z,100
2023-01-17T08:15:36.388Z,100
2023-01-17T08:16:38.222Z,100
2023-01-17T08:17:39.832Z,100
2023-01-17T08:18:41.588Z,100
2023-01-17T08:19:43.352Z,100
2023-01-17T08:20:45.076Z,100
2023-01-17T08:21:46.811Z,100
2023-01-17T08:22:48.516Z,100
2023-01-17T08:23:50.264Z,100
2023-01-17T08:24:52.002Z,100
2023-01-17T08:25:53.728Z,100
2023-01-17T08:26:55.468Z,100
2023-01-17T08:27:57.239Z,100
2023-01-17T08:28:58.944Z,100
2023-01-17T08:30:00.653Z,100
2023-01-17T08:31:02.400Z,100
2023-01-17T08:32:04.144Z,100
2023-01-17T08:33:05.885Z,100
2023-01-17T08:34:07.634Z,100
2023-01-17T08:35:09.348Z,100
2023-01-17T08:36:11.064Z,100
2023-01-17T08:37:12.798Z,100
2023-01-17T08:38:14.515Z,100
2023-01-17T08:39:16.265Z,100
2023-01-17T08:40:18.011Z,100
2023-01-17T08:41:19.722Z,100
2023-01-17T08:42:21.508Z,100
2023-01-17T08:43:23.200Z,100
2023-01-17T08:44:24.932Z,100
2023-01-17T08:45:26.669Z,100
2023-01-17T08:46:28.415Z,100
2023-01-17T08:47:30.133Z,100
2023-01-17T08:48:31.917Z,100
2023-01-17T08:49:33.610Z,100
2023-01-17T08:50:35.351Z,100
2023-01-17T08:51:37.082Z,100
2023-01-17T08:52:38.982Z,100
2023-01-17T08:53:40.550Z,100
2023-01-17T08:54:42.344Z,100
2023-01-17T08:55:44.007Z,100
2023-01-17T08:56:45.747Z,100
2023-01-17T08:57:47.495Z,100
2023-01-17T08:58:49.223Z,100
2023-01-17T08:59:50.974Z,100
2023-01-17T09:00:53.074Z,100
2023-01-17T09:01:54.599Z,100
2023-01-17T09:02:56.250Z,100
2023-01-17T09:03:57.994Z,100
2023-01-17T09:04:59.605Z,100
2023-01-17T09:06:01.336Z,100
2023-01-17T09:07:03.074Z,100
2023-01-17T09:08:04.800Z,100
2023-01-17T09:09:06.550Z,100
2023-01-17T09:10:08.297Z,100
2023-01-17T09:11:10.018Z,100
2023-01-17T09:12:11.750Z,100
2023-01-17T09:13:13.507Z,100
2023-01-17T09:14:15.222Z,100
2023-01-17T09:15:16.936Z,100
2023-01-17T09:16:18.864Z,100
2023-01-17T09:17:20.426Z,100
2023-01-17T09:18:22.168Z,100
2023-01-17T09:19:23.890Z,100
2023-01-17T09:20:25.634Z,100
2023-01-17T09:21:27.359Z,100
2023-01-17T09:22:29.093Z,100
2023-01-17T09:23:30.842Z,100
2023-01-17T09:24:32.553Z,100
2023-01-17T09:25:34.299Z,100
2023-01-17T09:26:36.038Z,100
2023-01-17T09:27:37.767Z,100
2023-01-17T09:28:39.499Z,100
2023-01-17T09:29:41.235Z,100
2023-01-17T09:30:42.968Z,100
2023-01-17T09:31:44.704Z,100
2023-01-17T09:32:46.428Z,100
2023-01-17T09:33:48.163Z,100
2023-01-17T09:34:49.919Z,100
2023-01-17T09:35:51.639Z,100
2023-01-17T09:36:53.352Z,100
2023-01-17T09:37:57.176Z,100
2023-01-17T09:38:56.837Z,100
2023-01-17T09:39:58.563Z,100
2023-01-17T09:41:00.285Z,100
2023-01-17T09:42:02.094Z,100
2023-01-17T09:43:03.788Z,100
2023-01-17T09:44:05.513Z,100
2023-01-17T09:45:07.253Z,100
2023-01-17T09:46:09.020Z,100
2023-01-17T09:47:10.845Z,100
2023-01-17T09:48:12.437Z,100
2023-01-17T09:49:14.197Z,100
2023-01-17T09:50:15.911Z,100
2023-01-17T09:51:17.663Z,100
2023-01-17T09:52:19.405Z,100
2023-01-17T09:53:21.164Z,100
2023-01-17T09:54:22.913Z,100
2023-01-17T09:55:24.594Z,100
2023-01-17T09:56:26.325Z,100
2023-01-17T09:57:28.070Z,100
2023-01-17T09:58:29.782Z,100
2023-01-17T09:59:35.395Z,100
2023-01-17T10:00:33.241Z,100
2023-01-17T10:01:35.157Z,100
2023-01-17T10:02:36.862Z,100
2023-01-17T10:03:38.557Z,100
2023-01-17T10:04:40.200Z,100
2023-01-17T10:05:41.918Z,100
2023-01-17T10:06:43.645Z,100
2023-01-17T10:07:45.381Z,100
2023-01-17T10:08:47.131Z,100
2023-01-17T10:09:48.848Z,100
2023-01-17T10:10:50.693Z,100
2023-01-17T10:11:52.336Z,100
2023-01-17T10:12:54.061Z,100
2023-01-17T10:13:55.793Z,100
2023-01-17T10:14:57.521Z,100
2023-01-17T10:16:00.234Z,100
2023-01-17T10:17:00.978Z,100
2023-01-17T10:18:02.744Z,100
2023-01-17T10:19:04.452Z,100
2023-01-17T10:20:06.196Z,100
2023-01-17T10:21:07.912Z,100
2023-01-17T10:22:09.655Z,100
2023-01-17T10:23:11.381Z,100
2023-01-17T10:24:13.155Z,100
2023-01-17T10:25:14.862Z,100
2023-01-17T10:26:16.641Z,100
2023-01-17T10:27:18.361Z,100
2023-01-17T10:28:20.058Z,100
2023-01-17T10:29:21.803Z,98.26
2023-01-17T10:30:23.554Z,97.18
2023-01-17T10:31:25.273Z,100
2023-01-17T10:32:27.021Z,94.63
2023-01-17T10:33:28.724Z,90.86
2023-01-17T10:34:30.451Z,92.06
2023-01-17T10:35:32.215Z,94.81
2023-01-17T10:36:33.998Z,94.99
2023-01-17T10:37:35.666Z,96.9
2023-01-17T10:38:37.413Z,96.31
2023-01-17T10:39:39.135Z,92.34
2023-01-17T10:40:40.876Z,86.03
2023-01-17T10:41:42.600Z,92.96
2023-01-17T10:42:44.319Z,94.17
2023-01-17T10:43:46.099Z,95.11
2023-01-17T10:44:47.785Z,94.06
2023-01-17T10:45:49.573Z,91.96
2023-01-17T10:46:51.285Z,91.62
2023-01-17T10:47:53.009Z,92.59
2023-01-17T10:48:54.774Z,91.75
2023-01-17T10:49:56.467Z,92.42
2023-01-17T10:50:58.199Z,89.39
2023-01-17T10:52:00.105Z,90.68
2023-01-17T10:53:01.679Z,91.37
2023-01-17T10:54:03.415Z,91.62
2023-01-17T10:55:05.229Z,91.43
2023-01-17T10:56:06.874Z,91.76
2023-01-17T10:57:08.603Z,91.82
2023-01-17T10:58:10.345Z,91.72
2023-01-17T10:59:12.060Z,93.39
2023-01-17T11:00:13.791Z,94.63
2023-01-17T11:01:15.723Z,95.45
2023-01-17T11:02:17.617Z,95.91
2023-01-17T11:03:18.999Z,95.02
2023-01-17T11:04:20.852Z,97.04
2023-01-17T11:05:22.478Z,98.16
2023-01-17T11:06:24.204Z,99.18
2023-01-17T11:07:25.934Z,98.89
2023-01-17T11:08:27.672Z,99.69
2023-01-17T11:09:29.408Z,100
2023-01-17T11:10:31.146Z,100
2023-01-17T11:11:32.884Z,100
2023-01-17T11:12:34.637Z,100
2023-01-17T11:13:36.352Z,100
2023-01-17T11:14:38.078Z,100
2023-01-17T11:15:40.035Z,100
2023-01-17T11:16:41.537Z,100
2023-01-17T11:17:43.271Z,100
2023-01-17T11:18:44.989Z,100
2023-01-17T11:19:46.748Z,100
2023-01-17T11:20:48.489Z,100
2023-01-17T11:21:50.213Z,100
2023-01-17T11:22:51.920Z,100
2023-01-17T11:23:53.691Z,100
2023-01-17T11:24:55.400Z,100
2023-01-17T11:25:57.155Z,100
2023-01-17T11:26:58.887Z,100
2023-01-17T11:28:00.619Z,100
2023-01-17T11:29:02.375Z,100
2023-01-17T11:30:04.064Z,100
2023-01-17T11:31:05.914Z,100
2023-01-17T11:32:07.546Z,100
2023-01-17T11:33:09.298Z,100
2023-01-17T11:34:11.035Z,100
2023-01-17T11:35:12.791Z,100
2023-01-17T11:36:14.482Z,100
2023-01-17T11:37:16.226Z,100
2023-01-17T11:38:17.958Z,100
2023-01-17T11:39:19.687Z,100
2023-01-17T11:40:21.424Z,100
2023-01-17T11:41:23.153Z,100
2023-01-17T11:42:24.914Z,100
2023-01-17T11:43:26.653Z,100
2023-01-17T11:44:28.365Z,100
2023-01-17T11:45:30.123Z,100
2023-01-17T11:46:31.883Z,100
2023-01-17T11:47:33.578Z,100
2023-01-17T11:48:35.295Z,100
2023-01-17T11:49:37.018Z,100
2023-01-17T11:50:38.832Z,100
2023-01-17T11:51:40.508Z,100
2023-01-17T11:52:42.238Z,100
2023-01-17T11:53:43.975Z,100
2023-01-17T11:54:45.713Z,100
2023-01-17T11:55:47.436Z,100
2023-01-17T11:56:49.180Z,100
2023-01-17T11:57:50.925Z,100
2023-01-17T11:58:52.653Z,100
2023-01-17T11:59:54.364Z,100
2023-01-17T12:00:56.141Z,100
2023-01-17T12:01:57.830Z,100
2023-01-17T12:02:59.649Z,100
2023-01-17T12:04:01.491Z,100
2023-01-17T12:05:03.161Z,100
2023-01-17T12:06:04.790Z,100
2023-01-17T12:07:06.506Z,100
2023-01-17T12:08:08.254Z,100
2023-01-17T12:09:10.007Z,100
2023-01-17T12:10:11.723Z,100
2023-01-17T12:11:13.531Z,100
2023-01-17T12:12:15.161Z,100
2023-01-17T12:13:16.900Z,100
2023-01-17T12:14:18.662Z,100
2023-01-17T12:15:20.378Z,100
2023-01-17T12:16:22.117Z,100
2023-01-17T12:17:23.856Z,100
2023-01-17T12:18:25.587Z,98.52
2023-01-17T12:19:27.323Z,97.19
2023-01-17T12:20:29.061Z,97.73
2023-01-17T12:21:30.802Z,97.2
2023-01-17T12:22:32.497Z,100
2023-01-17T12:23:34.251Z,100
2023-01-17T12:24:35.978Z,100
2023-01-17T12:25:37.745Z,100
2023-01-17T12:26:39.461Z,100
2023-01-17T12:27:44.186Z,100
2023-01-17T12:28:42.902Z,99.32
2023-01-17T12:29:44.668Z,100
2023-01-17T12:30:46.363Z,100
2023-01-17T12:31:48.116Z,99.49
2023-01-17T12:32:49.866Z,100
2023-01-17T12:33:51.674Z,100
2023-01-17T12:34:53.332Z,100
2023-01-17T12:35:55.069Z,100
2023-01-17T12:36:56.813Z,98.37
2023-01-17T12:38:04.950Z,99.54
2023-01-17T12:39:00.267Z,99.83
2023-01-17T12:40:01.987Z,100
2023-01-17T12:41:03.713Z,100
2023-01-17T12:42:05.452Z,100
2023-01-17T12:43:07.216Z,100
2023-01-17T12:44:08.920Z,100
2023-01-17T12:45:10.643Z,100
2023-01-17T12:46:12.445Z,100
2023-01-17T12:47:14.123Z,100
2023-01-17T12:48:15.860Z,100
2023-01-17T12:49:17.587Z,100
2023-01-17T12:50:19.319Z,100
2023-01-17T12:51:21.059Z,100
2023-01-17T12:52:22.845Z,100
2023-01-17T12:53:24.538Z,100
2023-01-17T12:54:26.248Z,100
2023-01-17T12:55:27.976Z,100
2023-01-17T12:56:29.728Z,100
2023-01-17T12:57:31.464Z,100
2023-01-17T12:58:33.242Z,100
2023-01-17T12:59:34.928Z,100
2023-01-17T13:00:36.724Z,100
2023-01-17T13:01:38.627Z,100
2023-01-17T13:02:40.148Z,100
2023-01-17T13:03:41.872Z,97.72
2023-01-17T13:04:57.665Z,96.61
2023-01-17T13:05:45.336Z,98.5
2023-01-17T13:06:47.077Z,99.9
2023-01-17T13:07:48.808Z,98.59
2023-01-17T13:08:50.524Z,96.46
2023-01-17T13:09:52.277Z,95.58
2023-01-17T13:10:53.989Z,97.75
2023-01-17T13:11:55.767Z,98.82
2023-01-17T13:12:57.477Z,99.33
2023-01-17T13:13:59.205Z,99.51
2023-01-17T13:15:00.966Z,100
2023-01-17T13:16:02.696Z,100
2023-01-17T13:17:04.393Z,100
2023-01-17T13:18:06.136Z,100
2023-01-17T13:19:07.871Z,99.87
2023-01-17T13:20:09.623Z,98.58
2023-01-17T13:21:11.327Z,99.83
2023-01-17T13:22:13.093Z,99.52
2023-01-17T13:23:14.807Z,98.36
2023-01-17T13:24:16.547Z,99.86
2023-01-17T13:25:18.287Z,100
2023-01-17T13:26:20.004Z,100
2023-01-17T13:27:21.727Z,99.99
2023-01-17T13:28:23.481Z,99.03
2023-01-17T13:29:25.245Z,98.71
2023-01-17T13:30:26.932Z,100
2023-01-17T13:31:28.764Z,100
2023-01-17T13:32:30.392Z,100
2023-01-17T13:33:32.157Z,100
2023-01-17T13:34:33.865Z,100
2023-01-17T13:35:35.599Z,100
2023-01-17T13:36:37.341Z,99.16
2023-01-17T13:37:39.106Z,100
2023-01-17T13:38:40.804Z,100
2023-01-17T13:39:42.530Z,99.48
2023-01-17T13:40:44.289Z,100
2023-01-17T13:41:46.027Z,98.58
2023-01-17T13:42:47.737Z,99.58
2023-01-17T13:43:49.491Z,96.78
2023-01-17T13:44:51.200Z,98.91
2023-01-17T13:45:53.022Z,99.3
2023-01-17T13:46:54.656Z,100
2023-01-17T13:47:56.431Z,99.51
2023-01-17T13:48:58.161Z,100
2023-01-17T13:49:59.870Z,100
2023-01-17T13:51:01.595Z,100
2023-01-17T13:52:03.326Z,100
2023-01-17T13:53:05.098Z,100
2023-01-17T13:54:06.822Z,100
2023-01-17T13:55:08.584Z,100
2023-01-17T13:56:10.278Z,100
2023-01-17T13:57:12.006Z,100
2023-01-17T13:58:13.746Z,100
2023-01-17T13:59:15.481Z,100
2023-01-17T14:00:17.194Z,100
2023-01-17T14:01:19.099Z,100
2023-01-17T14:02:20.763Z,100
2023-01-17T14:03:22.428Z,100
2023-01-17T14:04:24.157Z,100
2023-01-17T14:05:25.881Z,100
2023-01-17T14:06:27.626Z,100